Time;durP1;ratioP1;P1;durP2;ratioP2;P2;SDS_P1;SDS_P2;PMS_P1;PMS_P2;Temp;Humidity;BMP_temperature;BMP_pressure;BME280_temperature;BME280_humidity;BME280_pressure;Samples;Min_cycle;Max_cycle;Signal;HPM_P1;HPM_P2
2023/04/28 00:02:17;;;;;;;15.07;9.63;;;7.00;99.90;;;;;;4936794;29;20044;-68
2023/04/28 00:04:43;;;;;;;15.32;9.48;;;;;;;;;;4944087;29;20060;-68
2023/04/28 00:07:09;;;;;;;13.20;9.35;;;;;;;;;;4927904;29;20051;-68
2023/04/28 00:09:35;;;;;;;16.00;9.40;;;;;;;;;;4935736;29;20134;-68
2023/04/28 00:12:02;;;;;;;15.75;9.32;;;;;;;;;;4938913;29;20388;-69
2023/04/28 00:14:28;;;;;;;14.43;8.98;;;;;;;;;;4940587;28;20269;-68
2023/04/28 00:16:57;;;;;;;15.27;9.50;;;;;;;;;;4945269;29;20533;-68
2023/04/28 00:19:23;;;;;;;15.35;9.60;;;;;;;;;;4932894;29;20481;-68
2023/04/28 00:21:49;;;;;;;13.07;9.43;;;;;;;;;;4938164;29;20039;-67
2023/04/28 00:24:15;;;;;;;18.73;10.63;;;;;;;;;;4948646;28;20043;-68
2023/04/28 00:26:40;;;;;;;17.65;10.10;;;;;;;;;;4939591;29;20044;-68
2023/04/28 00:29:06;;;;;;;13.00;9.35;;;;;;;;;;4922508;29;20050;-68
2023/04/28 00:31:34;;;;;;;18.75;9.73;;;6.70;99.90;;;;;;4948181;29;20109;-68
2023/04/28 00:34:00;;;;;;;16.35;9.95;;;;;;;;;;4942757;28;20043;-68
2023/04/28 00:36:29;;;;;;;13.07;8.23;;;;;;;;;;4949723;29;20070;-68
2023/04/28 00:38:55;;;;;;;15.10;9.27;;;;;;;;;;4937992;29;20512;-68
2023/04/28 00:41:21;;;;;;;15.30;9.25;;;;;;;;;;4936682;28;20043;-67
2023/04/28 00:43:48;;;;;;;17.70;8.35;;;6.60;99.90;;;;;;4944020;29;20050;-68
2023/04/28 00:46:19;;;;;;;15.52;8.52;;;;;;;;;;4933902;29;20042;-68
2023/04/28 00:48:45;;;;;;;16.70;8.65;;;6.80;99.90;;;;;;4941631;29;20079;-69
2023/04/28 00:51:11;;;;;;;17.02;9.15;;;;;;;;;;4919626;29;20094;-68
2023/04/28 00:53:37;;;;;;;12.60;8.27;;;;;;;;;;4932943;29;20079;-68
2023/04/28 00:56:03;;;;;;;13.88;8.45;;;;;;;;;;4937909;29;20096;-68
2023/04/28 00:58:29;;;;;;;19.33;9.85;;;;;;;;;;4945806;29;20462;-68
2023/04/28 01:01:02;;;;;;;11.38;8.70;;;;;;;;;;4917749;29;20075;-68
2023/04/28 01:03:28;;;;;;;15.75;8.43;;;6.80;99.90;;;;;;4938119;29;20048;-68
2023/04/28 01:05:54;;;;;;;10.48;8.18;;;;;;;;;;4932933;29;20043;-68
2023/04/28 01:08:26;;;;;;;14.00;8.23;;;6.80;99.90;;;;;;4934848;29;20051;-69
2023/04/28 01:10:52;;;;;;;14.25;8.10;;;;;;;;;;4931968;29;20081;-69
2023/04/28 01:13:18;;;;;;;13.07;7.88;;;;;;;;;;4943779;29;20061;-69
2023/04/28 01:15:44;;;;;;;15.73;8.77;;;;;;;;;;4936663;29;20047;-69
2023/04/28 01:18:10;;;;;;;14.38;8.27;;;;;;;;;;4940249;29;20395;-67
2023/04/28 01:20:35;;;;;;;13.05;8.32;;;6.70;99.90;;;;;;4943297;29;20050;-68
2023/04/28 01:23:01;;;;;;;15.55;8.45;;;;;;;;;;4942169;29;20068;-69
2023/04/28 01:25:27;;;;;;;16.42;9.45;;;;;;;;;;4945244;29;20102;-69
2023/04/28 01:27:53;;;;;;;20.75;8.77;;;;;;;;;;4948443;28;20557;-68
2023/04/28 01:30:20;;;;;;;11.20;7.97;;;;;;;;;;4940288;29;20097;-69
2023/04/28 01:32:46;;;;;;;12.48;9.18;;;;;;;;;;4931026;29;20089;-68
2023/04/28 01:35:11;;;;;;;15.40;8.57;;;6.40;99.90;;;;;;4918800;29;20067;-68
2023/04/28 01:37:37;;;;;;;13.13;8.18;;;;;;;;;;4935895;29;20051;-68
2023/04/28 01:40:03;;;;;;;15.77;8.07;;;;;;;;;;4937120;29;20047;-68
2023/04/28 01:42:29;;;;;;;12.48;8.00;;;;;;;;;;4944470;28;20486;-68
2023/04/28 01:44:55;;;;;;;13.15;8.52;;;;;;;;;;4938249;29;20059;-68
2023/04/28 01:47:21;;;;;;;13.40;8.30;;;;;;;;;;4935258;29;20446;-68
2023/04/28 01:49:48;;;;;;;13.52;8.38;;;;;;;;;;4934402;29;20039;-68
2023/04/28 01:52:14;;;;;;;13.10;9.05;;;;;;;;;;4933620;29;20715;-68
2023/04/28 01:54:40;;;;;;;12.95;8.20;;;;;;;;;;4934496;29;20054;-69
2023/04/28 01:57:06;;;;;;;13.35;7.90;;;6.60;99.90;;;;;;4941261;29;20052;-68
2023/04/28 01:59:31;;;;;;;15.38;8.82;;;6.60;99.90;;;;;;4944814;29;20074;-68
2023/04/28 02:01:57;;;;;;;11.55;8.35;;;;;;;;;;4938011;29;20032;-69
2023/04/28 02:04:23;;;;;;;13.05;8.65;;;6.60;99.90;;;;;;4943599;29;20050;-68
2023/04/28 02:06:49;;;;;;;13.50;8.27;;;;;;;;;;4937876;29;20492;-68
2023/04/28 02:09:15;;;;;;;14.63;8.93;;;;;;;;;;4923078;29;20043;-68
2023/04/28 02:11:41;;;;;;;15.20;8.00;;;;;;;;;;4942661;29;20137;-69
2023/04/28 02:14:06;;;;;;;13.73;9.52;;;6.50;99.90;;;;;;4940883;28;20054;-69
2023/04/28 02:16:33;;;;;;;13.57;8.90;;;;;;;;;;4942748;29;20659;-69
2023/04/28 02:18:58;;;;;;;15.68;8.18;;;;;;;;;;4941878;28;20520;-69
2023/04/28 02:21:25;;;;;;;12.07;8.60;;;6.60;99.90;;;;;;4937746;29;20056;-68
2023/04/28 02:23:51;;;;;;;16.75;8.93;;;;;;;;;;4937817;28;20058;-68
2023/04/28 02:26:16;;;;;;;14.73;9.35;;;6.50;99.90;;;;;;4934571;28;20047;-68
2023/04/28 02:28:42;;;;;;;14.45;8.98;;;6.50;99.90;;;;;;4936408;28;20103;-69
2023/04/28 02:31:09;;;;;;;14.82;9.02;;;;;;;;;;4929969;28;20131;-68
2023/04/28 02:33:36;;;;;;;14.18;9.52;;;;;;;;;;4933189;28;20555;-68
2023/04/28 02:36:02;;;;;;;12.98;9.35;;;6.40;99.90;;;;;;4940155;28;20057;-69
2023/04/28 02:38:28;;;;;;;17.13;8.85;;;;;;;;;;4943212;28;20217;-69
2023/04/28 02:40:58;;;;;;;17.95;9.75;;;;;;;;;;4934236;28;20039;-68
2023/04/28 02:43:25;;;;;;;16.63;9.65;;;;;;;;;;4933731;28;20051;-68
2023/04/28 02:45:51;;;;;;;12.75;9.20;;;;;;;;;;4921345;28;20050;-68
2023/04/28 02:48:17;;;;;;;15.07;9.63;;;;;;;;;;4937447;28;20058;-68
2023/04/28 02:50:45;;;;;;;15.70;9.07;;;;;;;;;;4936568;28;20043;-68
2023/04/28 02:53:11;;;;;;;17.60;9.60;;;;;;;;;;4938982;28;20505;-68
2023/04/28 02:55:36;;;;;;;19.05;11.05;;;;;;;;;;4940697;28;20054;-68
2023/04/28 02:58:02;;;;;;;14.10;10.02;;;6.40;99.90;;;;;;4945823;28;20047;-68
2023/04/28 03:00:28;;;;;;;18.67;10.25;;;6.50;99.90;;;;;;4945882;29;20041;-68
2023/04/28 03:02:54;;;;;;;14.52;9.85;;;;;;;;;;4935905;28;20607;-68
2023/04/28 03:05:19;;;;;;;14.82;10.20;;;6.50;99.90;;;;;;4939263;28;20050;-67
2023/04/28 03:07:45;;;;;;;17.80;10.77;;;;;;;;;;4934371;28;20460;-68
2023/04/28 03:10:11;;;;;;;15.95;10.30;;;;;;;;;;4938479;28;20054;-68
2023/04/28 03:12:38;;;;;;;16.75;10.05;;;;;;;;;;4951598;28;20134;-68
2023/04/28 03:15:04;;;;;;;16.08;10.45;;;;;;;;;;4943907;28;20401;-69
2023/04/28 03:17:30;;;;;;;14.48;9.98;;;;;;;;;;4942501;28;20521;-68
2023/04/28 03:19:56;;;;;;;16.02;9.80;;;;;;;;;;4944223;28;20142;-68
2023/04/28 03:22:22;;;;;;;19.50;10.25;;;;;;;;;;4939329;29;20044;-68
2023/04/28 03:24:48;;;;;;;15.40;9.98;;;6.50;99.90;;;;;;4935677;29;20501;-68
2023/04/28 03:27:13;;;;;;;18.13;10.25;;;6.40;99.90;;;;;;4944769;28;20117;-69
2023/04/28 03:29:39;;;;;;;15.38;10.57;;;;;;;;;;4936967;28;20138;-68
2023/04/28 03:32:05;;;;;;;22.67;10.88;;;6.40;99.90;;;;;;4938169;28;20071;-68
2023/04/28 03:34:31;;;;;;;17.40;10.43;;;;;;;;;;4933682;28;20068;-68
2023/04/28 03:36:57;;;;;;;15.77;11.10;;;;;;;;;;4934844;28;20188;-68
2023/04/28 03:39:23;;;;;;;18.92;10.57;;;;;;;;;;4941047;28;20098;-68
2023/04/28 03:41:49;;;;;;;20.45;10.75;;;6.50;99.90;;;;;;4934478;28;20036;-68
2023/04/28 03:44:15;;;;;;;16.90;10.05;;;;;;;;;;4940644;28;20043;-68
2023/04/28 03:46:40;;;;;;;20.65;10.48;;;6.60;99.90;;;;;;4942649;28;20050;-68
2023/04/28 03:49:06;;;;;;;20.13;10.70;;;;;;;;;;4936860;28;20043;-68
2023/04/28 03:51:33;;;;;;;20.45;10.90;;;;;;;;;;4934159;29;20047;-68
2023/04/28 03:53:59;;;;;;;20.08;11.05;;;;;;;;;;4939086;28;20047;-68
2023/04/28 03:56:25;;;;;;;19.00;12.00;;;;;;;;;;4940349;28;20051;-68
2023/04/28 03:58:51;;;;;;;14.25;9.32;;;;;;;;;;4938184;28;20118;-68
2023/04/28 04:01:17;;;;;;;18.85;11.65;;;;;;;;;;4939922;28;20056;-68
2023/04/28 04:03:43;;;;;;;18.02;11.10;;;;;;;;;;4939044;29;20051;-68
2023/04/28 04:06:09;;;;;;;16.63;11.65;;;6.50;99.90;;;;;;4944167;28;20053;-68
2023/04/28 04:08:35;;;;;;;25.08;12.18;;;;;;;;;;4940609;28;20051;-67
2023/04/28 04:11:01;;;;;;;18.20;12.40;;;6.40;99.90;;;;;;4942459;28;20502;-68
2023/04/28 04:13:27;;;;;;;19.80;11.57;;;;;;;;;;4938020;28;20055;-68
2023/04/28 04:15:53;;;;;;;18.95;11.48;;;;;;;;;;4941298;28;20058;-68
2023/04/28 04:18:19;;;;;;;18.80;12.52;;;;;;;;;;4937668;28;20043;-68
2023/04/28 04:20:45;;;;;;;27.48;13.23;;;;;;;;;;4933008;29;20043;-68
2023/04/28 04:23:11;;;;;;;15.60;7.53;;;;;;;;;;4933065;29;20036;-68
2023/04/28 04:25:36;;;;;;;22.67;12.40;;;6.60;99.90;;;;;;4942839;28;20047;-68
2023/04/28 04:28:02;;;;;;;20.08;11.65;;;;;;;;;;4945308;29;20191;-68
2023/04/28 04:30:28;;;;;;;21.13;12.45;;;;;;;;;;4931065;29;20051;-68
2023/04/28 04:32:54;;;;;;;17.95;9.35;;;6.60;99.90;;;;;;4938253;28;20043;-69
2023/04/28 04:35:19;;;;;;;20.98;12.93;;;6.50;99.90;;;;;;4949720;28;20089;-70
2023/04/28 04:37:45;;;;;;;18.92;10.35;;;;;;;;;;4943105;28;20051;-71
2023/04/28 04:40:11;;;;;;;24.00;12.85;;;;;;;;;;4942318;28;20125;-70
2023/04/28 04:42:37;;;;;;;24.77;11.98;;;;;;;;;;4939562;28;20150;-70
2023/04/28 04:45:04;;;;;;;23.40;12.65;;;;;;;;;;4947534;28;20186;-70
2023/04/28 04:47:30;;;;;;;23.90;11.88;;;;;;;;;;4944249;28;20054;-70
2023/04/28 04:49:56;;;;;;;22.65;12.23;;;;;;;;;;4940789;28;20056;-70
2023/04/28 04:52:22;;;;;;;19.63;10.95;;;;;;;;;;4939538;28;20050;-69
2023/04/28 04:54:48;;;;;;;19.75;11.73;;;;;;;;;;4934686;28;20043;-68
2023/04/28 04:57:14;;;;;;;18.65;10.48;;;;;;;;;;4937338;28;20051;-69
2023/04/28 04:59:40;;;;;;;21.20;12.10;;;;;;;;;;4940255;28;20070;-70
2023/04/28 05:02:06;;;;;;;24.95;13.07;;;;;;;;;;4933766;28;20063;-69
2023/04/28 05:04:33;;;;;;;19.42;12.27;;;;;;;;;;4937328;28;20406;-68
2023/04/28 05:06:59;;;;;;;20.38;12.02;;;;;;;;;;4933679;28;20050;-69
2023/04/28 05:09:25;;;;;;;18.98;12.18;;;;;;;;;;4941923;28;20047;-69
2023/04/28 05:11:51;;;;;;;23.63;14.00;;;;;;;;;;4935469;28;20489;-68
2023/04/28 05:14:17;;;;;;;21.27;13.57;;;;;;;;;;4918629;29;20090;-69
2023/04/28 05:16:43;;;;;;;20.52;13.05;;;;;;;;;;4933226;28;20383;-71
2023/04/28 05:19:09;;;;;;;18.92;11.88;;;;;;;;;;4942052;29;20043;-69
2023/04/28 05:21:35;;;;;;;18.50;12.02;;;;;;;;;;4932731;28;20093;-68
2023/04/28 05:24:02;;;;;;;19.75;12.90;;;;;;;;;;4939533;28;20083;-69
2023/04/28 05:26:27;;;;;;;22.50;13.48;;;;;;;;;;4933973;29;20086;-68
2023/04/28 05:28:53;;;;;;;22.10;12.60;;;;;;;;;;4939400;29;20470;-68
2023/04/28 05:31:19;;;;;;;19.40;11.93;;;;;;;;;;4942817;29;20059;-68
2023/04/28 05:33:45;;;;;;;16.90;11.02;;;;;;;;;;4938620;28;20071;-69
2023/04/28 05:36:12;;;;;;;22.33;11.50;;;;;;;;;;4937478;28;20053;-69
2023/04/28 05:38:38;;;;;;;20.60;11.13;;;;;;;;;;4936275;28;20058;-70
2023/04/28 05:41:04;;;;;;;18.27;12.52;;;;;;;;;;4930816;29;20560;-70
2023/04/28 05:43:30;;;;;;;21.02;12.23;;;;;;;;;;4936425;29;20098;-69
2023/04/28 05:45:56;;;;;;;20.15;12.10;;;;;;;;;;4941728;29;20102;-69
2023/04/28 05:48:22;;;;;;;19.75;11.43;;;;;;;;;;4936334;28;20486;-69
2023/04/28 05:50:48;;;;;;;21.23;11.63;;;;;;;;;;4940400;28;20122;-68
2023/04/28 05:53:14;;;;;;;20.15;12.85;;;;;;;;;;4935313;28;20055;-69
2023/04/28 05:55:40;;;;;;;21.10;12.65;;;;;;;;;;4940309;28;20042;-69
2023/04/28 05:58:06;;;;;;;22.85;12.80;;;;;;;;;;4921510;29;20079;-69
2023/04/28 06:00:33;;;;;;;20.88;11.90;;;;;;;;;;4937973;28;20043;-68
2023/04/28 06:02:59;;;;;;;18.20;12.20;;;;;;;;;;4935665;28;20495;-69
2023/04/28 06:05:25;;;;;;;18.75;11.73;;;;;;;;;;4935161;28;20454;-70
2023/04/28 06:07:52;;;;;;;22.42;12.02;;;;;;;;;;4944926;28;20057;-72
2023/04/28 06:10:18;;;;;;;22.90;13.27;;;;;;;;;;4936626;28;20521;-71
2023/04/28 06:12:44;;;;;;;20.33;11.95;;;;;;;;;;4938512;28;20102;-71
2023/04/28 06:15:11;;;;;;;21.15;12.07;;;;;;;;;;4955761;28;20130;-70
2023/04/28 06:17:38;;;;;;;20.02;12.05;;;;;;;;;;4931013;28;20402;-71
2023/04/28 06:20:04;;;;;;;19.17;12.13;;;;;;;;;;4940366;28;20048;-70
2023/04/28 06:22:30;;;;;;;20.00;11.27;;;;;;;;;;4936342;28;20767;-71
2023/04/28 06:24:56;;;;;;;17.70;9.20;;;;;;;;;;4939675;29;20051;-71
2023/04/28 06:27:22;;;;;;;21.52;11.48;;;;;;;;;;4942806;28;20097;-72
2023/04/28 06:29:48;;;;;;;19.33;11.23;;;;;;;;;;4916299;29;20098;-69
2023/04/28 06:32:14;;;;;;;21.38;12.85;;;;;;;;;;4943526;28;20046;-70
2023/04/28 06:34:40;;;;;;;24.25;11.20;;;;;;;;;;4944956;28;20417;-71
2023/04/28 06:37:06;;;;;;;18.75;9.88;;;;;;;;;;4942098;28;20091;-72
2023/04/28 06:39:32;;;;;;;15.48;10.25;;;;;;;;;;4941261;28;20043;-71
2023/04/28 06:41:59;;;;;;;14.43;9.68;;;;;;;;;;4944388;28;20046;-71
2023/04/28 06:44:25;;;;;;;15.18;9.45;;;;;;;;;;4946234;28;20083;-70
2023/04/28 06:46:51;;;;;;;19.70;10.93;;;;;;;;;;4924655;29;20043;-70
2023/04/28 06:49:17;;;;;;;17.45;10.25;;;;;;;;;;4934494;28;20101;-70
2023/04/28 06:51:42;;;;;;;15.77;10.98;;;;;;;;;;4934870;29;20050;-70
2023/04/28 06:54:08;;;;;;;17.60;10.35;;;;;;;;;;4936477;28;20052;-70
2023/04/28 06:56:35;;;;;;;19.77;11.00;;;;;;;;;;4931301;29;20048;-69
2023/04/28 06:59:02;;;;;;;17.60;10.13;;;;;;;;;;4930982;28;20062;-72
2023/04/28 07:01:28;;;;;;;15.73;9.30;;;;;;;;;;4931470;28;20075;-70
2023/04/28 07:03:54;;;;;;;16.60;10.93;;;;;;;;;;4936802;28;20043;-70
2023/04/28 07:06:20;;;;;;;19.92;10.70;;;;;;;;;;4933933;28;20046;-71
2023/04/28 07:08:46;;;;;;;19.08;10.60;;;;;;;;;;4937181;28;20055;-70
2023/04/28 07:11:12;;;;;;;16.55;9.90;;;;;;;;;;4937187;28;20058;-71
2023/04/28 07:13:38;;;;;;;15.90;9.57;;;;;;;;;;4939437;28;20134;-70
2023/04/28 07:16:04;;;;;;;17.88;9.60;;;;;;;;;;4936658;28;20127;-70
2023/04/28 07:18:30;;;;;;;15.93;9.82;;;;;;;;;;4947266;28;20051;-70
2023/04/28 07:20:55;;;;;;;15.85;11.18;;;8.40;99.90;;;;;;4933216;28;20058;-70
2023/04/28 07:23:21;;;;;;;16.75;8.98;;;;;;;;;;4931572;29;20054;-69
2023/04/28 07:25:50;;;;;;;14.75;9.10;;;;;;;;;;4939881;28;20040;-71
2023/04/28 07:28:16;;;;;;;20.35;9.93;;;;;;;;;;4940221;28;20047;-69
2023/04/28 07:30:42;;;;;;;16.95;9.88;;;;;;;;;;4944663;28;20497;-69
2023/04/28 07:33:08;;;;;;;24.80;10.77;;;;;;;;;;4946691;28;20097;-71
2023/04/28 07:35:34;;;;;;;13.52;9.55;;;;;;;;;;4941415;28;20047;-70
2023/04/28 07:38:00;;;;;;;17.52;9.80;;;;;;;;;;4943829;28;20836;-70
2023/04/28 07:40:34;;;;;;;18.13;9.32;;;;;;;;;;4935955;28;20058;-71
2023/04/28 07:43:00;;;;;;;13.60;7.35;;;;;;;;;;4935608;28;20040;-71
2023/04/28 07:45:26;;;;;;;15.80;9.50;;;;;;;;;;4943818;28;20043;-72
2023/04/28 07:47:52;;;;;;;14.40;9.02;;;;;;;;;;4934355;28;20039;-72
2023/04/28 07:50:21;;;;;;;14.65;8.52;;;;;;;;;;4938378;28;21527;-71
2023/04/28 07:52:47;;;;;;;19.38;10.10;;;;;;;;;;4930315;28;20053;-71
2023/04/28 07:55:17;;;;;;;16.52;9.35;;;;;;;;;;4939746;28;20071;-70
2023/04/28 07:57:46;;;;;;;14.50;10.05;;;;;;;;;;4937147;28;20051;-68
2023/04/28 08:00:13;;;;;;;19.30;9.75;;;;;;;;;;4943448;28;20446;-68
2023/04/28 08:02:39;;;;;;;13.43;8.82;;;;;;;;;;4932710;28;20177;-69
2023/04/28 08:05:06;;;;;;;13.70;8.85;;;;;;;;;;4933844;29;20115;-69
2023/04/28 08:07:33;;;;;;;13.27;9.48;;;;;;;;;;4938088;28;20470;-69
2023/04/28 08:09:59;;;;;;;15.63;9.02;;;;;;;;;;4934433;28;20102;-69
2023/04/28 08:12:25;;;;;;;19.40;9.57;;;;;;;;;;4939310;28;20074;-69
2023/04/28 08:14:52;;;;;;;12.77;8.73;;;;;;;;;;4942987;28;20044;-70
2023/04/28 08:17:18;;;;;;;15.60;9.35;;;;;;;;;;4936923;28;20052;-69
2023/04/28 08:19:45;;;;;;;16.85;10.73;;;;;;;;;;4935014;28;20043;-69
2023/04/28 08:22:11;;;;;;;15.05;10.80;;;;;;;;;;4933699;28;20043;-71
2023/04/28 08:24:37;;;;;;;17.02;10.80;;;;;;;;;;4934032;28;20086;-70
2023/04/28 08:27:04;;;;;;;17.65;11.02;;;;;;;;;;4935893;28;20039;-69
2023/04/28 08:29:30;;;;;;;18.35;10.35;;;9.70;99.90;;;;;;4935001;28;20565;-69
2023/04/28 08:31:56;;;;;;;17.08;10.40;;;;;;;;;;4942318;28;20047;-69
2023/04/28 08:34:22;;;;;;;14.18;9.63;;;;;;;;;;4950412;28;20107;-70
2023/04/28 08:36:48;;;;;;;15.32;9.20;;;;;;;;;;4940176;28;20050;-69
2023/04/28 08:39:14;;;;;;;14.95;10.02;;;;;;;;;;4948940;28;20050;-70
2023/04/28 08:41:41;;;;;;;15.27;9.02;;;;;;;;;;4935563;29;20039;-70
2023/04/28 08:44:08;;;;;;;16.52;9.27;;;;;;;;;;4936701;28;20181;-69
2023/04/28 08:46:35;;;;;;;16.77;10.77;;;;;;;;;;4933944;28;20043;-70
2023/04/28 08:49:02;;;;;;;16.35;10.57;;;;;;;;;;4917418;28;20059;-71
2023/04/28 08:51:34;;;;;;;14.02;9.95;;;;;;;;;;4928944;28;20129;-69
2023/04/28 08:54:03;;;;;;;14.70;9.88;;;;;;;;;;4937078;28;20051;-70
2023/04/28 08:56:32;;;;;;;13.05;9.13;;;;;;;;;;4935986;28;20051;-71
2023/04/28 08:59:01;;;;;;;14.20;8.60;;;;;;;;;;4932012;28;20036;-70
2023/04/28 09:01:28;;;;;;;14.77;9.55;;;;;;;;;;4931842;28;20492;-70
2023/04/28 09:03:54;;;;;;;12.77;8.35;;;;;;;;;;4923397;29;20058;-68
2023/04/28 09:06:21;;;;;;;16.15;9.82;;;;;;;;;;4946207;28;20472;-69
2023/04/28 09:08:47;;;;;;;15.40;9.55;;;;;;;;;;4940200;28;20509;-68
2023/04/28 09:11:13;;;;;;;13.18;8.88;;;;;;;;;;4934155;28;20043;-69
2023/04/28 09:13:40;;;;;;;15.20;9.48;;;;;;;;;;4937283;28;20047;-68
2023/04/28 09:16:06;;;;;;;15.93;8.88;;;;;;;;;;4934245;28;20055;-68
2023/04/28 09:18:32;;;;;;;17.88;10.77;;;;;;;;;;4943435;28;20047;-69
2023/04/28 09:21:08;;;;;;;13.45;9.43;;;;;;;;;;4938414;28;20062;-70
2023/04/28 09:23:47;;;;;;;15.80;9.75;;;10.40;99.90;;;;;;4942577;28;20484;-69
2023/04/28 09:26:13;;;;;;;17.38;10.57;;;;;;;;;;4938659;28;20046;-70
2023/04/28 09:28:39;;;;;;;18.08;10.68;;;;;;;;;;4938136;28;20059;-71
2023/04/28 09:31:05;;;;;;;17.50;9.90;;;;;;;;;;4934477;28;20091;-74
2023/04/28 09:33:31;;;;;;;17.45;10.32;;;;;;;;;;4939483;28;20047;-75
2023/04/28 09:35:57;;;;;;;17.27;8.50;;;;;;;;;;4938971;28;20087;-74
2023/04/28 09:38:23;;;;;;;14.85;10.63;;;;;;;;;;4915995;29;20134;-70
2023/04/28 09:40:56;;;;;;;13.65;9.23;;;;;;;;;;4928661;28;20047;-69
2023/04/28 09:43:35;;;;;;;16.15;8.88;;;;;;;;;;4932508;28;20823;-69
2023/04/28 09:46:01;;;;;;;13.57;8.30;;;;;;;;;;4944291;28;20043;-69
2023/04/28 09:48:27;;;;;;;14.02;10.35;;;;;;;;;;4930659;28;20098;-70
2023/04/28 09:50:55;;;;;;;14.68;10.38;;;11.80;99.90;;;;;;4933885;28;20495;-70
2023/04/28 09:53:22;;;;;;;12.35;9.65;;;11.80;99.90;;;;;;4933527;28;20075;-70
2023/04/28 09:55:49;;;;;;;15.48;10.18;;;;;;;;;;4933497;28;20461;-70
2023/04/28 09:58:18;;;;;;;14.45;9.93;;;11.70;99.90;;;;;;4935521;28;20055;-70
2023/04/28 10:00:44;;;;;;;14.35;9.40;;;;;;;;;;4938124;28;20042;-70
2023/04/28 10:03:11;;;;;;;14.02;9.98;;;;;;;;;;4938391;28;20043;-70
2023/04/28 10:05:38;;;;;;;13.45;7.88;;;;;;;;;;4941123;28;20548;-71
2023/04/28 10:08:04;;;;;;;13.45;9.25;;;12.50;99.90;;;;;;4934234;28;20078;-70
2023/04/28 10:10:30;;;;;;;15.15;9.40;;;;;;;;;;4938222;28;20139;-70
2023/04/28 10:12:56;;;;;;;13.38;9.82;;;;;;;;;;4931457;28;20463;-70
2023/04/28 10:15:23;;;;;;;15.65;8.32;;;;;;;;;;4936000;28;20058;-71
2023/04/28 10:17:49;;;;;;;11.27;8.80;;;12.60;99.90;;;;;;4937696;28;20050;-69
2023/04/28 10:20:16;;;;;;;13.57;8.23;;;;;;;;;;4940069;28;20039;-69
2023/04/28 10:22:53;;;;;;;12.27;9.45;;;12.70;99.90;;;;;;4944432;28;20054;-70
2023/04/28 10:25:35;;;;;;;17.17;9.02;;;12.80;99.90;;;;;;4934014;28;20102;-73
2023/04/28 10:28:06;;;;;;;12.95;8.75;;;13.10;99.90;;;;;;4934837;28;20059;-71
2023/04/28 10:30:32;;;;;;;11.02;8.60;;;;;;;;;;4943812;28;20051;-72
2023/04/28 10:33:08;;;;;;;12.45;7.80;;;13.00;99.90;;;;;;4942464;28;20372;-71
2023/04/28 10:35:35;;;;;;;11.43;9.15;;;;;;;;;;4945292;28;20049;-71
2023/04/28 10:38:13;;;;;;;13.07;9.32;;;13.20;99.90;;;;;;4940821;28;20557;-71
2023/04/28 10:40:45;;;;;;;12.57;8.23;;;13.40;99.90;;;;;;4914047;28;20036;-70
2023/04/28 10:43:13;;;;;;;12.77;8.32;;;13.50;99.90;;;;;;4938766;28;20039;-72
2023/04/28 10:45:48;;;;;;;12.48;9.05;;;13.30;99.90;;;;;;4939997;28;20047;-71
2023/04/28 10:48:37;;;;;;;12.38;9.10;;;13.40;99.90;;;;;;4939489;28;20078;-69
2023/04/28 10:51:03;;;;;;;13.80;9.00;;;13.60;99.90;;;;;;4936750;28;20359;-70
2023/04/28 10:53:43;;;;;;;14.75;8.35;;;13.70;99.90;;;;;;4945432;28;20054;-69
2023/04/28 10:56:10;;;;;;;16.25;9.27;;;13.60;99.90;;;;;;4941516;28;20047;-70
2023/04/28 10:58:41;;;;;;;11.40;8.18;;;;;;;;;;4941555;28;20059;-70
2023/04/28 11:01:24;;;;;;;10.73;8.45;;;13.90;99.90;;;;;;4940033;28;20038;-70
2023/04/28 11:03:52;;;;;;;12.73;9.23;;;;;;;;;;4944487;28;20090;-71
2023/04/28 11:06:25;;;;;;;12.98;8.95;;;;;;;;;;4944828;28;20732;-71
2023/04/28 11:08:51;;;;;;;12.27;9.10;;;;;;;;;;4934405;28;20058;-71
2023/04/28 11:11:21;;;;;;;13.35;7.88;;;13.60;99.90;;;;;;4921186;28;20054;-72
2023/04/28 11:14:14;;;;;;;12.25;7.95;;;13.70;99.90;;;;;;4928742;29;20055;-73
2023/04/28 11:17:11;;;;;;;11.40;7.82;;;13.70;99.90;;;;;;4953151;28;20058;-71
2023/04/28 11:19:45;;;;;;;15.43;9.60;;;13.90;99.90;;;;;;4953117;28;20040;-71
2023/04/28 11:22:19;;;;;;;15.18;8.27;;;13.80;99.90;;;;;;4944858;28;20120;-72
2023/04/28 11:24:58;;;;;;;11.60;7.57;;;13.80;99.90;;;;;;4945108;28;20047;-72
2023/04/28 11:27:36;;;;;;;14.07;8.50;;;;;;;;;;4944267;28;20294;-71
2023/04/28 11:30:05;;;;;;;15.30;8.45;;;;;;;;;;4921042;29;20066;-72
2023/04/28 11:32:35;;;;;;;12.63;9.07;;;13.70;99.90;;;;;;4946678;28;20050;-70
2023/04/28 11:35:03;;;;;;;16.23;8.55;;;;;;;;;;4942120;28;20040;-70
2023/04/28 11:37:29;;;;;;;12.90;8.40;;;;;;;;;;4934207;28;20043;-70
2023/04/28 11:39:56;;;;;;;14.48;9.50;;;;;;;;;;4944989;28;20110;-70
2023/04/28 11:42:24;;;;;;;11.45;8.73;;;;;;;;;;4944537;28;20676;-71
2023/04/28 11:44:52;;;;;;;13.63;10.00;;;13.60;99.90;;;;;;4942785;28;20103;-72
2023/04/28 11:47:32;;;;;;;13.52;9.70;;;13.60;99.90;;;;;;4921428;28;20047;-72
2023/04/28 11:49:58;;;;;;;14.75;11.23;;;;;;;;;;4917260;29;20083;-72
2023/04/28 11:52:26;;;;;;;16.58;12.90;;;;;;;;;;4927221;28;20047;-71
2023/04/28 11:55:06;;;;;;;20.30;13.35;;;;;;;;;;4942946;28;20402;-75
2023/04/28 11:57:32;;;;;;;18.45;13.02;;;;;;;;;;4942546;28;20044;-71
2023/04/28 12:00:18;;;;;;;19.40;14.68;;;;;;;;;;4923179;29;20043;-72
2023/04/28 12:02:45;;;;;;;25.55;15.15;;;;;;;;;;4932535;28;20035;-72
2023/04/28 12:05:12;;;;;;;23.48;14.75;;;;;;;;;;4937551;28;20038;-72
2023/04/28 12:07:43;;;;;;;20.35;13.50;;;;;;;;;;4923626;28;20580;-74
2023/04/28 12:10:18;;;;;;;19.75;14.18;;;13.00;99.90;;;;;;4933300;28;20107;-72
2023/04/28 12:12:46;;;;;;;22.02;13.85;;;;;;;;;;4921806;28;20055;-72
2023/04/28 12:15:12;;;;;;;19.80;13.57;;;;;;;;;;4930509;29;20417;-71
2023/04/28 12:17:41;;;;;;;19.75;13.48;;;;;;;;;;4940947;28;20044;-73
2023/04/28 12:20:12;;;;;;;21.50;14.25;;;13.30;99.90;;;;;;4927665;28;20039;-73
2023/04/28 12:22:48;;;;;;;20.65;13.63;;;;;;;;;;4926797;28;20035;-71
2023/04/28 12:25:16;;;;;;;18.95;13.45;;;13.30;99.90;;;;;;4943654;28;20040;-71
2023/04/28 12:27:58;;;;;;;18.40;12.52;;;13.40;99.90;;;;;;4935132;28;20512;-72
2023/04/28 12:30:25;;;;;;;17.20;13.18;;;;;;;;;;4940126;28;20087;-70
2023/04/28 12:32:52;;;;;;;16.55;11.45;;;;;;;;;;4931129;28;20047;-71
2023/04/28 12:35:21;;;;;;;21.98;12.57;;;13.20;99.90;;;;;;4942558;28;20103;-72
2023/04/28 12:37:47;;;;;;;18.38;12.23;;;;;;;;;;4941365;28;20035;-73
2023/04/28 12:40:13;;;;;;;17.33;11.55;;;;;;;;;;4933272;28;20046;-72
2023/04/28 12:42:40;;;;;;;17.92;12.65;;;;;;;;;;4936335;28;20047;-70
2023/04/28 12:45:06;;;;;;;17.92;13.05;;;13.30;99.90;;;;;;4940945;28;20094;-71
2023/04/28 12:47:32;;;;;;;21.20;15.93;;;13.20;99.90;;;;;;4941566;28;20034;-71
2023/04/28 12:49:58;;;;;;;20.17;14.60;;;;;;;;;;4939019;28;20039;-71
2023/04/28 12:52:24;;;;;;;25.48;17.05;;;;;;;;;;4936824;28;20040;-70
2023/04/28 12:54:50;;;;;;;22.75;17.17;;;;;;;;;;4941285;28;20046;-70
2023/04/28 12:57:17;;;;;;;31.10;20.55;;;;;;;;;;4945063;28;20102;-71
2023/04/28 12:59:43;;;;;;;28.08;20.70;;;12.70;99.90;;;;;;4946343;28;20564;-71
2023/04/28 13:02:09;;;;;;;32.00;22.75;;;;;;;;;;4941727;28;20589;-71
2023/04/28 13:04:35;;;;;;;28.15;21.52;;;;;;;;;;4935538;28;20047;-70
2023/04/28 13:07:01;;;;;;;31.60;24.23;;;;;;;;;;4935372;28;20050;-71
2023/04/28 13:09:27;;;;;;;33.55;24.63;;;12.80;99.90;;;;;;4944292;28;20079;-71
2023/04/28 13:11:53;;;;;;;33.90;26.52;;;12.90;99.90;;;;;;4939344;28;20082;-72
2023/04/28 13:14:19;;;;;;;39.17;28.00;;;;;;;;;;4939142;28;20075;-70
2023/04/28 13:16:45;;;;;;;43.42;29.83;;;;;;;;;;4937860;28;20051;-70
2023/04/28 13:19:13;;;;;;;41.97;28.90;;;12.80;99.90;;;;;;4932998;28;20549;-71
2023/04/28 13:21:41;;;;;;;45.38;33.65;;;12.90;99.90;;;;;;4931372;28;20046;-71
2023/04/28 13:24:08;;;;;;;39.17;31.48;;;13.10;99.90;;;;;;4938432;28;20490;-71
2023/04/28 13:26:34;;;;;;;44.63;32.55;;;;;;;;;;4941468;28;20046;-71
2023/04/28 13:29:01;;;;;;;42.13;33.08;;;;;;;;;;4941050;28;20058;-71
2023/04/28 13:31:28;;;;;;;45.13;32.85;;;;;;;;;;4932679;28;20047;-70
2023/04/28 13:33:54;;;;;;;43.15;33.05;;;;;;;;;;4941201;28;20046;-70
2023/04/28 13:36:20;;;;;;;47.28;33.90;;;;;;;;;;4938687;28;20414;-70
2023/04/28 13:38:47;;;;;;;42.20;32.80;;;;;;;;;;4931861;28;20494;-70
2023/04/28 13:41:16;;;;;;;42.78;31.20;;;13.20;99.90;;;;;;4933693;28;20450;-71
2023/04/28 13:43:42;;;;;;;36.40;30.52;;;;;;;;;;4943386;28;20052;-71
2023/04/28 13:46:08;;;;;;;39.38;30.60;;;12.90;99.90;;;;;;4944537;28;20050;-72
2023/04/28 13:48:38;;;;;;;38.40;29.90;;;;;;;;;;4940844;28;20817;-71
2023/04/28 13:51:04;;;;;;;40.80;31.23;;;13.00;99.90;;;;;;4936363;28;20066;-70
2023/04/28 13:53:30;;;;;;;36.35;29.00;;;13.00;99.90;;;;;;4945399;28;20044;-71
2023/04/28 13:55:56;;;;;;;38.28;30.85;;;;;;;;;;4944738;28;20047;-70
2023/04/28 13:58:31;;;;;;;38.85;30.90;;;12.90;99.90;;;;;;4936776;28;20047;-70